sensor_id;sensor_type;location;lat;lon;timestamp;pressure;altitude;pressure_sealevel;temperature;humidity
60244;BME280;46106;51.468;5.814;2023-07-13T18:24:46;101430.34;;;19.55;100.00
60244;BME280;46106;51.468;5.814;2023-07-13T18:27:12;101438.06;;;19.70;100.00
60244;BME280;46106;51.468;5.814;2023-07-13T18:29:37;101436.91;;;19.80;100.00
60244;BME280;46106;51.468;5.814;2023-07-13T18:34:39;101434.75;;;19.66;100.00
60244;BME280;46106;51.468;5.814;2023-07-13T18:37:18;101442.19;;;19.65;100.00
60244;BME280;46106;51.468;5.814;2023-07-13T18:39:45;101433.03;;;19.73;100.00
60244;BME280;46106;51.468;5.814;2023-07-13T18:42:11;101434.75;;;19.66;100.00
60244;BME280;46106;51.468;5.814;2023-07-13T18:44:36;101432.31;;;19.63;100.00
60244;BME280;46106;51.468;5.814;2023-07-13T18:47:02;101435.50;;;19.42;100.00
60244;BME280;46106;51.468;5.814;2023-07-13T18:49:29;101439.19;;;19.51;100.00
60244;BME280;46106;51.468;5.814;2023-07-13T18:51:55;101439.09;;;19.34;100.00
60244;BME280;46106;51.468;5.814;2023-07-13T18:54:20;101436.03;;;19.45;100.00
60244;BME280;46106;51.468;5.814;2023-07-13T18:56:47;101439.41;;;19.31;100.00
60244;BME280;46106;51.468;5.814;2023-07-13T18:59:13;101441.38;;;19.39;100.00
60244;BME280;46106;51.468;5.814;2023-07-13T19:01:40;101443.91;;;19.24;100.00
60244;BME280;46106;51.468;5.814;2023-07-13T19:04:25;101448.34;;;19.43;100.00
60244;BME280;46106;51.468;5.814;2023-07-13T19:06:51;101441.72;;;19.36;100.00
60244;BME280;46106;51.468;5.814;2023-07-13T19:09:16;101440.06;;;19.25;100.00
60244;BME280;46106;51.468;5.814;2023-07-13T19:11:42;101441.72;;;19.36;100.00
60244;BME280;46106;51.468;5.814;2023-07-13T19:14:10;101442.41;;;19.38;100.00
60244;BME280;46106;51.468;5.814;2023-07-13T19:16:36;101446.31;;;19.19;100.00
60244;BME280;46106;51.468;5.814;2023-07-13T19:19:12;101444.72;;;19.16;100.00
60244;BME280;46106;51.468;5.814;2023-07-13T19:21:57;101443.25;;;19.04;100.00
60244;BME280;46106;51.468;5.814;2023-07-13T19:24:47;101448.91;;;18.94;100.00
60244;BME280;46106;51.468;5.814;2023-07-13T19:27:34;101446.84;;;18.96;100.00
60244;BME280;46106;51.468;5.814;2023-07-13T19:30:19;101450.03;;;19.09;100.00
60244;BME280;46106;51.468;5.814;2023-07-13T19:33:05;101449.28;;;18.99;100.00
60244;BME280;46106;51.468;5.814;2023-07-13T19:35:52;101446.41;;;19.09;100.00
60244;BME280;46106;51.468;5.814;2023-07-13T19:38:38;101447.38;;;19.00;100.00
60244;BME280;46106;51.468;5.814;2023-07-13T19:41:26;101450.31;;;18.98;100.00
60244;BME280;46106;51.468;5.814;2023-07-13T19:44:13;101450.91;;;19.10;100.00
60244;BME280;46106;51.468;5.814;2023-07-13T19:46:59;101449.44;;;18.98;100.00
60244;BME280;46106;51.468;5.814;2023-07-13T19:49:45;101446.66;;;18.98;100.00
60244;BME280;46106;51.468;5.814;2023-07-13T19:52:31;101455.41;;;18.85;100.00
60244;BME280;46106;51.468;5.814;2023-07-13T19:55:19;101465.06;;;18.81;100.00
60244;BME280;46106;51.468;5.814;2023-07-13T19:58:09;101461.91;;;18.94;100.00
60244;BME280;46106;51.468;5.814;2023-07-13T20:00:55;101455.47;;;18.75;100.00
60244;BME280;46106;51.468;5.814;2023-07-13T20:03:41;101466.72;;;18.73;100.00
60244;BME280;46106;51.468;5.814;2023-07-13T20:06:32;101465.72;;;18.74;100.00
60244;BME280;46106;51.468;5.814;2023-07-13T20:09:23;101464.28;;;18.70;100.00
60244;BME280;46106;51.468;5.814;2023-07-13T20:12:12;101465.97;;;18.63;100.00
60244;BME280;46106;51.468;5.814;2023-07-13T20:14:59;101457.78;;;18.62;100.00
60244;BME280;46106;51.468;5.814;2023-07-13T20:17:57;101467.44;;;18.58;100.00
60244;BME280;46106;51.468;5.814;2023-07-13T20:20:44;101462.63;;;18.42;100.00
60244;BME280;46106;51.468;5.814;2023-07-13T20:23:34;101467.84;;;18.27;100.00
60244;BME280;46106;51.468;5.814;2023-07-13T20:26:19;101469.50;;;18.19;100.00
60244;BME280;46106;51.468;5.814;2023-07-13T20:29:07;101472.75;;;17.87;100.00
60244;BME280;46106;51.468;5.814;2023-07-13T20:31:53;101472.59;;;17.89;100.00
60244;BME280;46106;51.468;5.814;2023-07-13T20:34:39;101470.94;;;17.68;100.00
60244;BME280;46106;51.468;5.814;2023-07-13T20:37:35;101470.53;;;17.63;100.00
60244;BME280;46106;51.468;5.814;2023-07-13T20:40:23;101476.22;;;17.61;100.00
60244;BME280;46106;51.468;5.814;2023-07-13T20:43:09;101473.56;;;17.70;100.00
60244;BME280;46106;51.468;5.814;2023-07-13T20:45:57;101473.81;;;17.76;100.00
60244;BME280;46106;51.468;5.814;2023-07-13T20:48:45;101473.69;;;17.68;100.00
60244;BME280;46106;51.468;5.814;2023-07-13T20:51:36;101472.63;;;17.51;100.00
60244;BME280;46106;51.468;5.814;2023-07-13T20:54:22;101474.16;;;17.63;100.00
60244;BME280;46106;51.468;5.814;2023-07-13T20:57:08;101472.88;;;17.58;100.00
60244;BME280;46106;51.468;5.814;2023-07-13T20:59:55;101470.06;;;17.68;100.00
60244;BME280;46106;51.468;5.814;2023-07-13T21:02:41;101473.47;;;17.52;100.00
60244;BME280;46106;51.468;5.814;2023-07-13T21:05:36;101466.75;;;17.54;100.00
60244;BME280;46106;51.468;5.814;2023-07-13T21:08:24;101475.25;;;17.43;100.00
60244;BME280;46106;51.468;5.814;2023-07-13T21:11:09;101461.88;;;17.38;100.00
60244;BME280;46106;51.468;5.814;2023-07-13T21:13:55;101467.78;;;17.16;100.00
60244;BME280;46106;51.468;5.814;2023-07-13T21:16:41;101464.00;;;17.17;100.00
60244;BME280;46106;51.468;5.814;2023-07-13T21:19:26;101466.28;;;17.21;100.00
60244;BME280;46106;51.468;5.814;2023-07-13T21:22:14;101471.97;;;17.20;100.00
60244;BME280;46106;51.468;5.814;2023-07-13T21:25:03;101468.19;;;17.21;100.00
60244;BME280;46106;51.468;5.814;2023-07-13T21:27:55;101475.44;;;17.32;100.00
60244;BME280;46106;51.468;5.814;2023-07-13T21:30:43;101481.16;;;17.20;100.00
60244;BME280;46106;51.468;5.814;2023-07-13T21:33:29;101482.56;;;17.34;100.00
60244;BME280;46106;51.468;5.814;2023-07-13T21:36:15;101489.09;;;17.43;100.00
60244;BME280;46106;51.468;5.814;2023-07-13T21:39:03;101481.44;;;17.64;100.00
60244;BME280;46106;51.468;5.814;2023-07-13T21:41:50;101474.81;;;17.75;100.00
60244;BME280;46106;51.468;5.814;2023-07-13T21:44:36;101486.81;;;17.76;100.00
60244;BME280;46106;51.468;5.814;2023-07-13T21:47:21;101483.44;;;17.72;100.00
60244;BME280;46106;51.468;5.814;2023-07-13T21:50:07;101475.84;;;17.47;100.00
60244;BME280;46106;51.468;5.814;2023-07-13T21:52:53;101480.44;;;17.56;100.00
60244;BME280;46106;51.468;5.814;2023-07-13T21:55:39;101480.34;;;17.48;100.00
60244;BME280;46106;51.468;5.814;2023-07-13T21:58:30;101487.19;;;17.53;100.00
60244;BME280;46106;51.468;5.814;2023-07-13T22:01:22;101494.91;;;17.50;100.00
60244;BME280;46106;51.468;5.814;2023-07-13T22:04:12;101492.72;;;17.53;100.00
60244;BME280;46106;51.468;5.814;2023-07-13T22:06:59;101482.09;;;17.49;100.00
60244;BME280;46106;51.468;5.814;2023-07-13T22:09:45;101483.38;;;17.54;100.00
60244;BME280;46106;51.468;5.814;2023-07-13T22:12:30;101490.16;;;17.70;100.00
60244;BME280;46106;51.468;5.814;2023-07-13T22:15:16;101484.59;;;17.79;100.00
60244;BME280;46106;51.468;5.814;2023-07-13T22:18:21;101481.66;;;17.81;100.00
60244;BME280;46106;51.468;5.814;2023-07-13T22:21:08;101488.47;;;17.87;100.00
60244;BME280;46106;51.468;5.814;2023-07-13T22:23:57;101501.41;;;17.68;100.00
60244;BME280;46106;51.468;5.814;2023-07-13T22:26:43;101519.97;;;17.58;100.00
60244;BME280;46106;51.468;5.814;2023-07-13T22:29:31;101522.28;;;17.53;100.00
60244;BME280;46106;51.468;5.814;2023-07-13T22:32:18;101515.50;;;17.37;100.00
60244;BME280;46106;51.468;5.814;2023-07-13T22:35:04;101508.34;;;17.35;100.00
60244;BME280;46106;51.468;5.814;2023-07-13T22:37:52;101489.28;;;17.32;100.00
60244;BME280;46106;51.468;5.814;2023-07-13T22:40:41;101497.19;;;17.17;100.00
60244;BME280;46106;51.468;5.814;2023-07-13T22:43:27;101516.41;;;17.08;100.00
60244;BME280;46106;51.468;5.814;2023-07-13T22:46:27;101507.56;;;16.95;100.00
60244;BME280;46106;51.468;5.814;2023-07-13T22:49:21;101510.78;;;16.90;100.00
60244;BME280;46106;51.468;5.814;2023-07-13T22:52:12;101509.72;;;16.72;100.00
60244;BME280;46106;51.468;5.814;2023-07-13T22:54:58;101500.88;;;16.88;100.00
60244;BME280;46106;51.468;5.814;2023-07-13T22:57:47;101512.50;;;16.92;100.00
60244;BME280;46106;51.468;5.814;2023-07-13T23:00:33;101506.94;;;16.72;100.00
60244;BME280;46106;51.468;5.814;2023-07-13T23:03:19;101509.72;;;16.82;100.00
60244;BME280;46106;51.468;5.814;2023-07-13T23:06:05;101508.84;;;16.81;100.00
60244;BME280;46106;51.468;5.814;2023-07-13T23:08:50;101498.50;;;16.73;100.00
60244;BME280;46106;51.468;5.814;2023-07-13T23:11:36;101498.38;;;16.75;100.00
60244;BME280;46106;51.468;5.814;2023-07-13T23:14:22;101491.56;;;16.89;100.00
60244;BME280;46106;51.468;5.814;2023-07-13T23:17:11;101502.16;;;16.94;100.00
60244;BME280;46106;51.468;5.814;2023-07-13T23:19:57;101499.88;;;16.89;100.00
60244;BME280;46106;51.468;5.814;2023-07-13T23:22:43;101491.97;;;16.84;100.00
60244;BME280;46106;51.468;5.814;2023-07-13T23:25:31;101489.50;;;16.81;100.00
60244;BME280;46106;51.468;5.814;2023-07-13T23:28:20;101489.63;;;16.70;100.00
60244;BME280;46106;51.468;5.814;2023-07-13T23:31:10;101490.66;;;16.59;100.00
60244;BME280;46106;51.468;5.814;2023-07-13T23:33:58;101496.31;;;16.58;100.00
60244;BME280;46106;51.468;5.814;2023-07-13T23:36:45;101486.28;;;16.57;100.00
60244;BME280;46106;51.468;5.814;2023-07-13T23:39:30;101479.75;;;16.48;100.00
60244;BME280;46106;51.468;5.814;2023-07-13T23:42:16;101490.81;;;16.48;100.00
60244;BME280;46106;51.468;5.814;2023-07-13T23:45:02;101481.91;;;16.34;100.00
60244;BME280;46106;51.468;5.814;2023-07-13T23:47:50;101486.44;;;16.35;100.00
60244;BME280;46106;51.468;5.814;2023-07-13T23:50:37;101478.84;;;16.38;100.00
60244;BME280;46106;51.468;5.814;2023-07-13T23:53:23;101480.31;;;16.32;100.00
60244;BME280;46106;51.468;5.814;2023-07-13T23:56:20;101476.09;;;16.38;100.00
60244;BME280;46106;51.468;5.814;2023-07-13T23:59:07;101472.44;;;16.27;100.00
